aviador You're here:

YSTW Decoded Metar

TAMWORTH in AUSTRALIA
Report Time2018-01-16 21:00:00
UTC Time2018-01-16 21:15:55
Flight Rules vfr VFR
Wind140° at 06 kt
W.Decomp.*RWY 12: 5.9 kt HW 0.9 kt RCW
RWY 18: 3.8 kt HW 4.7 kt LCW
RWY 06: 2.2 kt HW 5.6 kt RCW
W.Rank140° ranks 2
Current wind is below 140° avg. (7.0)
Visibility9999 m
Phenomena:N/A
Clouds:N/A
Expected CloudBase > 4,800 ft AGL from Temp-Dew spread
CeilingNone
Temp17°C (ISA +5)
Dew Point05°C (45% RH)
AAT13.7°C
QNH1019 hPa
Density Alt1,814 ft
Elevation1,345 ft
Report Wrong Elevation
Raw Report
METAR YSTW 162100Z AUTO 14006KT 9999 // NCD 17/05 Q1019
RF00.0/000.0=

Extra information for YSTW:More info

Metar Taf Metar & Taf Last 4 Metars F.Rules Stats Wind Profile Meteogram Temp Stats Airport Information Weather charts Add Link Nearby VenuesMetar ALERT Operation Metar Decoded Social comments